createdAt,value
2022-09-04T00:00:00.447Z,15.98
2022-09-04T00:01:00.437Z,15.97
2022-09-04T00:02:00.424Z,15.98
2022-09-04T00:03:00.424Z,15.97
2022-09-04T00:04:00.488Z,15.97
2022-09-04T00:05:00.501Z,15.95
2022-09-04T00:06:00.375Z,15.95
2022-09-04T00:07:00.366Z,15.95
2022-09-04T00:08:00.376Z,15.94
2022-09-04T00:09:00.344Z,15.94
2022-09-04T00:10:00.338Z,15.92
2022-09-04T00:11:00.316Z,15.92
2022-09-04T00:12:00.317Z,15.92
2022-09-04T00:13:00.316Z,15.91
2022-09-04T00:14:00.287Z,15.86
2022-09-04T00:15:00.269Z,15.88
2022-09-04T00:16:00.276Z,15.86
2022-09-04T00:17:00.290Z,15.84
2022-09-04T00:18:00.257Z,15.82
2022-09-04T00:19:00.228Z,15.82
2022-09-04T00:20:00.237Z,15.82
2022-09-04T00:21:00.215Z,15.80
2022-09-04T00:22:00.207Z,15.79
2022-09-04T00:23:00.197Z,15.76
2022-09-04T00:24:00.180Z,15.76
2022-09-04T00:25:00.156Z,15.75
2022-09-04T00:26:00.160Z,15.73
2022-09-04T00:27:00.140Z,15.73
2022-09-04T00:28:00.148Z,15.73
2022-09-04T00:29:00.117Z,15.72
2022-09-04T00:30:00.165Z,15.70
2022-09-04T00:31:00.179Z,15.68
2022-09-04T00:32:00.088Z,15.65
2022-09-04T00:33:00.083Z,15.65
2022-09-04T00:34:00.072Z,15.65
2022-09-04T00:35:00.061Z,15.65
2022-09-04T00:36:00.068Z,15.64
2022-09-04T00:37:00.033Z,15.64
2022-09-04T00:38:00.050Z,15.62
2022-09-04T00:39:00.013Z,15.62
2022-09-04T00:40:00.046Z,15.64
2022-09-04T00:40:59.992Z,15.62
2022-09-04T00:41:59.980Z,15.62
2022-09-04T00:42:59.978Z,15.62
2022-09-04T00:43:59.961Z,15.62
2022-09-04T00:44:59.944Z,15.61
2022-09-04T00:45:59.999Z,15.59
2022-09-04T00:46:59.922Z,15.58
2022-09-04T00:47:59.920Z,15.58
2022-09-04T00:48:59.901Z,15.58
2022-09-04T00:49:59.894Z,15.57
2022-09-04T00:50:59.915Z,15.57
2022-09-04T00:51:59.873Z,15.55
2022-09-04T00:52:59.853Z,15.57
2022-09-04T00:53:59.861Z,15.54
2022-09-04T00:54:59.827Z,15.54
2022-09-04T00:55:59.833Z,15.52
2022-09-04T00:56:59.820Z,15.51
2022-09-04T00:57:59.801Z,15.49
2022-09-04T00:58:59.810Z,15.49
2022-09-04T00:59:59.824Z,15.49
2022-09-04T01:00:59.936Z,15.47
2022-09-04T01:01:59.866Z,15.47
2022-09-04T01:02:59.749Z,15.46
2022-09-04T01:03:59.743Z,15.44
2022-09-04T01:04:59.956Z,15.46
2022-09-04T01:05:59.736Z,15.44
2022-09-04T01:06:59.703Z,15.44
2022-09-04T01:07:59.764Z,15.44
2022-09-04T01:08:59.771Z,15.44
2022-09-04T01:09:59.756Z,15.44
2022-09-04T01:10:59.748Z,15.44
2022-09-04T01:11:59.784Z,15.44
2022-09-04T01:12:59.744Z,15.43
2022-09-04T01:13:59.655Z,15.43
2022-09-04T01:14:59.871Z,15.44
2022-09-04T01:15:59.687Z,15.44
2022-09-04T01:16:59.850Z,15.44
2022-09-04T01:17:59.796Z,15.44
2022-09-04T01:18:59.820Z,15.44
2022-09-04T01:19:59.815Z,15.44
2022-09-04T01:20:59.552Z,15.42
2022-09-04T01:21:59.616Z,15.44
2022-09-04T01:22:59.629Z,15.43
2022-09-04T01:23:59.596Z,15.42
2022-09-04T01:24:59.669Z,15.40
2022-09-04T01:25:59.488Z,15.40
2022-09-04T01:26:59.477Z,15.40
2022-09-04T01:27:59.475Z,15.40
2022-09-04T01:28:59.449Z,15.40
2022-09-04T01:29:59.468Z,15.39
2022-09-04T01:30:59.438Z,15.40
2022-09-04T01:31:59.462Z,15.40
2022-09-04T01:32:59.410Z,15.39
2022-09-04T01:33:59.409Z,15.39
2022-09-04T01:34:59.401Z,15.39
2022-09-04T01:35:59.401Z,15.40
2022-09-04T01:36:59.375Z,15.40
2022-09-04T01:37:59.378Z,15.42
2022-09-04T01:38:59.349Z,15.40
2022-09-04T01:39:59.442Z,15.40
2022-09-04T01:40:59.391Z,15.40
2022-09-04T01:41:59.320Z,15.40
2022-09-04T01:42:59.301Z,15.40
2022-09-04T01:43:59.289Z,15.39
2022-09-04T01:44:59.308Z,15.37
2022-09-04T01:45:59.312Z,15.39
2022-09-04T01:46:59.253Z,15.39
2022-09-04T01:47:59.248Z,15.40
2022-09-04T01:48:59.241Z,15.39
2022-09-04T01:49:59.225Z,15.39
2022-09-04T01:50:59.220Z,15.39
2022-09-04T01:51:59.201Z,15.37
2022-09-04T01:52:59.196Z,15.37
2022-09-04T01:53:59.195Z,15.37
2022-09-04T01:54:59.161Z,15.37
2022-09-04T01:55:59.182Z,15.37
2022-09-04T01:56:59.136Z,15.37
2022-09-04T01:57:59.144Z,15.35
2022-09-04T01:58:59.124Z,15.35
2022-09-04T01:59:59.121Z,15.31
2022-09-04T02:00:59.211Z,15.31
2022-09-04T02:01:59.115Z,15.31
2022-09-04T02:02:59.082Z,15.28
2022-09-04T02:03:59.083Z,15.29
2022-09-04T02:04:59.053Z,15.27
2022-09-04T02:05:59.065Z,15.27
2022-09-04T02:06:59.033Z,15.25
2022-09-04T02:07:59.039Z,15.25
2022-09-04T02:08:59.013Z,15.25
2022-09-04T02:09:59.019Z,15.24
2022-09-04T02:10:59.005Z,15.21
2022-09-04T02:11:58.997Z,15.19
2022-09-04T02:12:58.965Z,15.18
2022-09-04T02:13:58.969Z,15.18
2022-09-04T02:14:58.945Z,15.15
2022-09-04T02:15:58.993Z,15.14
2022-09-04T02:16:58.925Z,15.14
2022-09-04T02:17:58.925Z,15.11
2022-09-04T02:18:58.897Z,15.09
2022-09-04T02:19:58.906Z,15.09
2022-09-04T02:20:58.896Z,15.07
2022-09-04T02:21:58.878Z,15.06
2022-09-04T02:22:58.857Z,15.06
2022-09-04T02:23:58.858Z,15.06
2022-09-04T02:24:58.846Z,15.03
2022-09-04T02:25:58.838Z,15.03
2022-09-04T02:26:58.855Z,15.00
2022-09-04T02:27:58.865Z,15.02
2022-09-04T02:28:58.855Z,14.99
2022-09-04T02:29:58.893Z,15.00
2022-09-04T02:30:58.918Z,14.99
2022-09-04T02:31:58.986Z,14.97
2022-09-04T02:32:58.977Z,14.96
2022-09-04T02:33:59.008Z,14.97
2022-09-04T02:34:58.725Z,14.96
2022-09-04T02:35:58.726Z,14.96
2022-09-04T02:36:58.726Z,14.96
2022-09-04T02:37:58.707Z,14.96
2022-09-04T02:38:58.697Z,14.92
2022-09-04T02:39:58.747Z,14.89
2022-09-04T02:40:58.658Z,14.88
2022-09-04T02:41:58.678Z,14.86
2022-09-04T02:42:58.645Z,14.85
2022-09-04T02:43:58.638Z,14.85
2022-09-04T02:44:58.617Z,14.84
2022-09-04T02:45:58.618Z,14.84
2022-09-04T02:46:58.643Z,14.82
2022-09-04T02:47:58.590Z,14.82
2022-09-04T02:48:58.572Z,14.81
2022-09-04T02:49:58.570Z,14.78
2022-09-04T02:50:58.551Z,14.79
2022-09-04T02:51:58.579Z,14.78
2022-09-04T02:52:58.531Z,14.77
2022-09-04T02:53:58.523Z,14.77
2022-09-04T02:54:58.498Z,14.77
2022-09-04T02:55:58.502Z,14.73
2022-09-04T02:56:58.492Z,14.73
2022-09-04T02:57:58.490Z,14.72
2022-09-04T02:58:58.460Z,14.70
2022-09-04T02:59:58.460Z,14.72
2022-09-04T03:00:58.496Z,14.70
2022-09-04T03:01:58.503Z,14.69
2022-09-04T03:02:58.431Z,14.69
2022-09-04T03:03:58.411Z,14.70
2022-09-04T03:04:58.410Z,14.69
2022-09-04T03:05:58.383Z,14.68
2022-09-04T03:06:58.387Z,14.69
2022-09-04T03:07:58.371Z,14.68
2022-09-04T03:08:58.363Z,14.63
2022-09-04T03:09:58.331Z,14.65
2022-09-04T03:10:58.342Z,14.65
2022-09-04T03:11:58.311Z,14.62
2022-09-04T03:12:58.342Z,14.63
2022-09-04T03:13:58.298Z,14.62
2022-09-04T03:14:58.299Z,14.60
2022-09-04T03:15:58.384Z,14.59
2022-09-04T03:16:58.283Z,14.59
2022-09-04T03:17:58.251Z,14.54
2022-09-04T03:18:58.263Z,14.53
2022-09-04T03:19:58.231Z,14.55
2022-09-04T03:20:58.231Z,14.54
2022-09-04T03:21:58.202Z,14.54
2022-09-04T03:22:58.203Z,14.53
2022-09-04T03:23:58.195Z,14.51
2022-09-04T03:24:58.182Z,14.50
2022-09-04T03:25:58.156Z,14.50
2022-09-04T03:26:58.175Z,14.48
2022-09-04T03:27:58.143Z,14.48
2022-09-04T03:28:58.155Z,14.47
2022-09-04T03:29:58.116Z,14.47
2022-09-04T03:30:58.155Z,14.47
2022-09-04T03:31:58.104Z,14.45
2022-09-04T03:32:58.099Z,14.44
2022-09-04T03:33:58.156Z,14.41
2022-09-04T03:34:58.067Z,14.41
2022-09-04T03:35:58.049Z,14.41
2022-09-04T03:36:58.057Z,14.37
2022-09-04T03:37:58.043Z,14.37
2022-09-04T03:38:58.075Z,14.36
2022-09-04T03:39:58.303Z,14.35
2022-09-04T03:40:58.096Z,14.36
2022-09-04T03:41:58.095Z,14.36
2022-09-04T03:42:58.067Z,14.35
2022-09-04T03:43:58.243Z,14.33
2022-09-04T03:44:58.175Z,14.33
2022-09-04T03:45:58.095Z,14.30
2022-09-04T03:46:58.222Z,14.30
2022-09-04T03:47:58.148Z,14.30
2022-09-04T03:48:58.179Z,14.29
2022-09-04T03:49:58.415Z,14.28
2022-09-04T03:50:58.150Z,14.28
2022-09-04T03:51:58.156Z,14.28
2022-09-04T03:52:57.960Z,14.26
2022-09-04T03:53:57.849Z,14.26
2022-09-04T03:54:57.868Z,14.26
2022-09-04T03:55:57.822Z,14.25
2022-09-04T03:56:57.816Z,14.25
2022-09-04T03:57:57.816Z,14.23
2022-09-04T03:58:57.812Z,14.23
2022-09-04T03:59:57.828Z,14.22
2022-09-04T04:00:57.847Z,14.18
2022-09-04T04:01:57.759Z,14.18
2022-09-04T04:02:57.834Z,14.18
2022-09-04T04:03:57.728Z,14.17
2022-09-04T04:04:57.741Z,14.17
2022-09-04T04:05:57.727Z,14.17
2022-09-04T04:06:57.719Z,14.14
2022-09-04T04:07:57.691Z,14.14
2022-09-04T04:08:57.687Z,14.12
2022-09-04T04:09:57.668Z,14.11
2022-09-04T04:10:57.691Z,14.12
2022-09-04T04:11:57.647Z,14.10
2022-09-04T04:12:57.640Z,14.10
2022-09-04T04:13:57.627Z,14.08
2022-09-04T04:14:57.632Z,14.08
2022-09-04T04:15:57.679Z,14.07
2022-09-04T04:16:57.611Z,14.07
2022-09-04T04:17:57.628Z,14.07
2022-09-04T04:18:57.667Z,14.04
2022-09-04T04:19:57.609Z,14.04
2022-09-04T04:20:57.691Z,14.04
2022-09-04T04:21:57.731Z,14.04
2022-09-04T04:22:57.712Z,14.03
2022-09-04T04:23:57.550Z,14.00
2022-09-04T04:24:57.737Z,14.00
2022-09-04T04:25:57.775Z,14.03
2022-09-04T04:26:57.492Z,14.03
2022-09-04T04:27:57.469Z,14.00
2022-09-04T04:28:57.460Z,14.00
2022-09-04T04:29:57.452Z,14.00
2022-09-04T04:30:57.490Z,13.99
2022-09-04T04:31:57.440Z,13.99
2022-09-04T04:32:57.426Z,13.97
2022-09-04T04:33:57.404Z,13.99
2022-09-04T04:34:57.400Z,13.99
2022-09-04T04:35:57.372Z,13.97
2022-09-04T04:36:57.384Z,13.99
2022-09-04T04:37:57.356Z,13.97
2022-09-04T04:38:57.369Z,13.99
2022-09-04T04:39:57.403Z,13.99
2022-09-04T04:40:57.372Z,13.99
2022-09-04T04:41:57.465Z,13.97
2022-09-04T04:42:57.353Z,13.97
2022-09-04T04:43:57.364Z,13.97
2022-09-04T04:44:57.417Z,13.97
2022-09-04T04:45:57.404Z,13.96
2022-09-04T04:46:57.454Z,13.97
2022-09-04T04:47:57.430Z,13.97
2022-09-04T04:48:57.412Z,13.96
2022-09-04T04:49:57.317Z,13.96
2022-09-04T04:50:57.353Z,13.96
2022-09-04T04:51:57.352Z,13.95
2022-09-04T04:52:57.323Z,13.95
2022-09-04T04:53:57.361Z,13.96
2022-09-04T04:54:57.177Z,13.96
2022-09-04T04:55:57.177Z,13.96
2022-09-04T04:56:57.285Z,13.97
2022-09-04T04:57:57.192Z,13.96
2022-09-04T04:58:57.126Z,13.97
2022-09-04T04:59:57.136Z,13.99
2022-09-04T05:00:57.124Z,13.99
2022-09-04T05:01:57.185Z,13.97
2022-09-04T05:02:57.148Z,13.97
2022-09-04T05:03:57.070Z,13.99
2022-09-04T05:04:57.064Z,13.99
2022-09-04T05:05:57.040Z,14.00
2022-09-04T05:06:57.044Z,14.00
2022-09-04T05:07:57.136Z,14.00
2022-09-04T05:08:57.017Z,14.03
2022-09-04T05:09:57.004Z,14.04
2022-09-04T05:10:56.996Z,14.04
2022-09-04T05:11:56.977Z,14.04
2022-09-04T05:12:56.996Z,14.07
2022-09-04T05:13:56.969Z,14.07
2022-09-04T05:14:56.957Z,14.08
2022-09-04T05:16:08.877Z,14.08
2022-09-04T05:16:58.138Z,14.11
2022-09-04T05:17:56.936Z,14.10
2022-09-04T05:18:56.908Z,14.11
2022-09-04T05:19:56.889Z,14.12
2022-09-04T05:20:56.897Z,14.14
2022-09-04T05:21:56.876Z,14.15
2022-09-04T05:22:56.876Z,14.15
2022-09-04T05:23:56.941Z,14.17
2022-09-04T05:24:56.837Z,14.18
2022-09-04T05:25:56.817Z,14.20
2022-09-04T05:26:56.809Z,14.20
2022-09-04T05:27:56.817Z,14.22
2022-09-04T05:28:56.808Z,14.23
2022-09-04T05:29:56.785Z,14.25
2022-09-04T05:30:56.816Z,14.25
2022-09-04T05:31:56.769Z,14.25
2022-09-04T05:32:56.757Z,14.29
2022-09-04T05:33:57.519Z,14.28
2022-09-04T05:34:56.745Z,14.28
2022-09-04T05:35:56.714Z,14.29
2022-09-04T05:36:56.713Z,14.29
2022-09-04T05:37:56.688Z,14.29
2022-09-04T05:38:56.694Z,14.32
2022-09-04T05:39:56.732Z,14.33
2022-09-04T05:40:56.669Z,14.33
2022-09-04T05:41:56.641Z,14.35
2022-09-04T05:42:56.648Z,14.35
2022-09-04T05:43:56.621Z,14.37
2022-09-04T05:44:56.798Z,14.40
2022-09-04T05:45:56.657Z,14.43
2022-09-04T05:46:56.604Z,14.45
2022-09-04T05:47:56.580Z,14.50
2022-09-04T05:48:56.580Z,14.50
2022-09-04T05:49:56.562Z,14.54
2022-09-04T05:50:56.602Z,14.55
2022-09-04T05:51:56.549Z,14.62
2022-09-04T05:52:56.533Z,14.63
2022-09-04T05:54:00.797Z,14.68
2022-09-04T05:54:56.521Z,14.70
2022-09-04T05:55:56.509Z,14.77
2022-09-04T05:56:56.485Z,14.82
2022-09-04T05:57:56.470Z,14.85
2022-09-04T05:58:56.473Z,14.88
2022-09-04T05:59:56.473Z,14.91
2022-09-04T06:00:56.433Z,14.94
2022-09-04T06:01:56.472Z,14.99
2022-09-04T06:02:56.457Z,15.02
2022-09-04T06:03:56.414Z,15.04
2022-09-04T06:04:56.385Z,15.10
2022-09-04T06:05:56.394Z,15.11
2022-09-04T06:06:56.386Z,15.14
2022-09-04T06:07:56.365Z,15.17
2022-09-04T06:08:56.345Z,15.18
2022-09-04T06:09:56.353Z,15.21
2022-09-04T06:10:56.373Z,15.21
2022-09-04T06:11:56.325Z,15.24
2022-09-04T06:12:56.301Z,15.27
2022-09-04T06:13:56.293Z,15.28
2022-09-04T06:14:56.282Z,15.33
2022-09-04T06:15:56.327Z,15.36
2022-09-04T06:16:56.275Z,15.39
2022-09-04T06:17:56.265Z,15.42
2022-09-04T06:18:56.241Z,15.46
2022-09-04T06:19:56.245Z,15.47
2022-09-04T06:20:56.226Z,15.52
2022-09-04T06:21:56.394Z,15.55
2022-09-04T06:22:57.696Z,15.59
2022-09-04T06:23:56.193Z,15.64
2022-09-04T06:24:56.165Z,15.65
2022-09-04T06:25:56.175Z,15.70
2022-09-04T06:26:56.158Z,15.75
2022-09-04T06:27:56.146Z,15.79
2022-09-04T06:28:56.125Z,15.80
2022-09-04T06:29:56.125Z,15.84
2022-09-04T06:30:56.132Z,15.88
2022-09-04T06:31:56.106Z,15.92
2022-09-04T06:32:56.081Z,15.94
2022-09-04T06:33:56.079Z,16.00
2022-09-04T06:34:56.059Z,16.02
2022-09-04T06:35:56.066Z,16.08
2022-09-04T06:36:56.054Z,16.13
2022-09-04T06:37:56.038Z,16.17
2022-09-04T06:38:56.018Z,16.23
2022-09-04T06:39:56.063Z,16.26
2022-09-04T06:40:55.999Z,16.29
2022-09-04T06:41:56.008Z,16.32
2022-09-04T06:42:55.967Z,16.35
2022-09-04T06:43:55.969Z,16.38
2022-09-04T06:44:55.947Z,16.41
2022-09-04T06:46:00.155Z,16.43
2022-09-04T06:46:56.999Z,16.49
2022-09-04T06:47:55.920Z,16.51
2022-09-04T06:48:55.907Z,16.54
2022-09-04T06:49:55.899Z,16.58
2022-09-04T06:50:55.881Z,16.61
2022-09-04T06:51:55.903Z,16.66
2022-09-04T06:52:55.871Z,16.71
2022-09-04T06:53:55.862Z,16.76
2022-09-04T06:54:55.831Z,16.81
2022-09-04T06:55:55.840Z,16.86
2022-09-04T06:56:55.836Z,16.89
2022-09-04T06:57:55.836Z,16.91
2022-09-04T06:59:00.578Z,16.94
2022-09-04T06:59:56.789Z,17.01
2022-09-04T07:00:55.761Z,17.04
2022-09-04T07:01:55.861Z,17.09
2022-09-04T07:02:55.827Z,17.15
2022-09-04T07:03:55.747Z,17.19
2022-09-04T07:04:55.723Z,17.23
2022-09-04T07:05:55.724Z,17.30
2022-09-04T07:06:55.712Z,17.38
2022-09-04T07:07:55.743Z,17.44
2022-09-04T07:08:55.674Z,17.48
2022-09-04T07:09:59.873Z,17.54
2022-09-04T07:10:56.644Z,17.60
2022-09-04T07:11:55.692Z,17.68
2022-09-04T07:12:55.732Z,17.72
2022-09-04T07:13:55.651Z,17.79
2022-09-04T07:14:55.652Z,17.85
2022-09-04T07:15:55.699Z,17.90
2022-09-04T07:16:55.743Z,17.95
2022-09-04T07:17:59.509Z,18.04
2022-09-04T07:18:56.584Z,18.11
2022-09-04T07:19:55.723Z,18.18
2022-09-04T07:20:55.732Z,18.23
2022-09-04T07:21:55.742Z,18.26
2022-09-04T07:22:55.773Z,18.33
2022-09-04T07:23:59.073Z,18.37
2022-09-04T07:24:56.516Z,18.40
2022-09-04T07:25:55.697Z,18.43
2022-09-04T07:26:55.729Z,18.47
2022-09-04T07:27:55.834Z,18.50
2022-09-04T07:28:55.457Z,18.53
2022-09-04T07:29:55.456Z,18.58
2022-09-04T07:30:55.785Z,18.62
2022-09-04T07:31:55.468Z,18.66
2022-09-04T07:32:55.409Z,18.73
2022-09-04T07:33:55.416Z,18.75
2022-09-04T07:34:55.393Z,18.80
2022-09-04T07:35:55.385Z,18.83
2022-09-04T07:36:55.365Z,18.86
2022-09-04T07:37:55.358Z,18.88
2022-09-04T07:38:55.358Z,18.93
2022-09-04T07:39:55.364Z,19.04
2022-09-04T07:40:55.316Z,19.16
2022-09-04T07:41:55.317Z,19.22
2022-09-04T07:42:55.304Z,19.26
2022-09-04T07:43:55.409Z,19.29
2022-09-04T07:44:55.277Z,19.30
2022-09-04T07:45:55.395Z,19.33
2022-09-04T07:46:55.248Z,19.36
2022-09-04T07:47:55.256Z,19.37
2022-09-04T07:48:55.236Z,19.40
2022-09-04T07:49:55.237Z,19.41
2022-09-04T07:50:55.210Z,19.47
2022-09-04T07:51:55.217Z,19.51
2022-09-04T07:52:55.192Z,19.54
2022-09-04T07:53:55.202Z,19.58
2022-09-04T07:54:55.187Z,19.64
2022-09-04T07:55:55.163Z,19.67
2022-09-04T07:56:55.139Z,19.69
2022-09-04T07:57:55.147Z,19.70
2022-09-04T07:58:55.132Z,19.73
2022-09-04T07:59:55.129Z,19.74
2022-09-04T08:00:55.101Z,19.82
2022-09-04T08:01:55.175Z,19.88
2022-09-04T08:02:55.075Z,19.92
2022-09-04T08:03:55.077Z,19.96
2022-09-04T08:04:55.175Z,20.02
2022-09-04T08:05:55.041Z,20.03
2022-09-04T08:06:55.024Z,20.07
2022-09-04T08:07:55.032Z,20.07
2022-09-04T08:08:55.032Z,20.10
2022-09-04T08:09:55.020Z,20.13
2022-09-04T08:10:54.980Z,20.19
2022-09-04T08:11:54.989Z,20.24
2022-09-04T08:12:54.964Z,20.25
2022-09-04T08:13:54.952Z,20.31
2022-09-04T08:14:54.966Z,20.36
2022-09-04T08:15:54.959Z,20.40
2022-09-04T08:16:54.928Z,20.43
2022-09-04T08:17:54.921Z,20.47
2022-09-04T08:18:54.926Z,20.50
2022-09-04T08:19:54.905Z,20.50
2022-09-04T08:20:54.893Z,20.51
2022-09-04T08:21:54.874Z,20.52
2022-09-04T08:22:55.553Z,20.56
2022-09-04T08:23:54.856Z,20.60
2022-09-04T08:24:54.847Z,20.63
2022-09-04T08:25:54.860Z,20.69
2022-09-04T08:26:54.805Z,20.77
2022-09-04T08:27:54.812Z,20.82
2022-09-04T08:28:54.786Z,20.90
2022-09-04T08:29:54.785Z,20.99
2022-09-04T08:30:54.796Z,21.07
2022-09-04T08:31:54.765Z,21.12
2022-09-04T08:32:54.744Z,21.20
2022-09-04T08:33:54.735Z,21.33
2022-09-04T08:34:54.726Z,21.46
2022-09-04T08:35:54.739Z,21.50
2022-09-04T08:36:54.694Z,21.58
2022-09-04T08:37:54.698Z,21.61
2022-09-04T08:38:54.674Z,21.62
2022-09-04T08:39:54.827Z,21.67
2022-09-04T08:40:54.667Z,21.69
2022-09-04T08:41:54.687Z,21.76
2022-09-04T08:42:54.692Z,21.96
2022-09-04T08:43:54.627Z,22.11
2022-09-04T08:44:54.619Z,22.30
2022-09-04T08:45:54.715Z,22.43
2022-09-04T08:46:55.204Z,22.72
2022-09-04T08:47:54.585Z,22.80
2022-09-04T08:48:54.566Z,22.83
2022-09-04T08:49:54.558Z,22.90
2022-09-04T08:50:54.562Z,22.98
2022-09-04T08:51:54.561Z,23.13
2022-09-04T08:52:54.518Z,23.10
2022-09-04T08:53:54.522Z,23.00
2022-09-04T08:54:54.510Z,23.02
2022-09-04T08:55:54.490Z,23.09
2022-09-04T08:56:54.490Z,23.12
2022-09-04T08:57:54.482Z,23.41
2022-09-04T08:58:55.128Z,23.68
2022-09-04T08:59:54.594Z,23.99
2022-09-04T09:00:54.533Z,24.21
2022-09-04T09:01:54.605Z,24.21
2022-09-04T09:02:54.635Z,24.20
2022-09-04T09:03:54.584Z,24.18
2022-09-04T09:04:54.645Z,24.23
2022-09-04T09:05:54.652Z,24.47
2022-09-04T09:06:54.405Z,24.54
2022-09-04T09:07:54.372Z,24.78
2022-09-04T09:08:54.365Z,24.92
2022-09-04T09:09:54.344Z,24.93
2022-09-04T09:10:54.364Z,24.91
2022-09-04T09:11:54.325Z,24.92
2022-09-04T09:12:54.488Z,24.92
2022-09-04T09:13:55.377Z,24.98
2022-09-04T09:14:54.284Z,25.08
2022-09-04T09:15:54.266Z,25.14
2022-09-04T09:16:54.393Z,25.23
2022-09-04T09:17:54.264Z,25.36
2022-09-04T09:18:54.284Z,25.36
2022-09-04T09:19:54.228Z,25.35
2022-09-04T09:20:54.224Z,25.43
2022-09-04T09:21:54.208Z,25.60
2022-09-04T09:22:54.328Z,25.81
2022-09-04T09:23:54.197Z,25.85
2022-09-04T09:24:54.191Z,25.60
2022-09-04T09:25:54.196Z,25.31
2022-09-04T09:26:54.180Z,25.10
2022-09-04T09:27:54.158Z,25.14
2022-09-04T09:28:54.137Z,25.23
2022-09-04T09:29:54.128Z,25.48
2022-09-04T09:30:54.144Z,25.62
2022-09-04T09:31:54.108Z,25.72
2022-09-04T09:32:54.099Z,25.70
2022-09-04T09:33:54.079Z,25.80
2022-09-04T09:34:54.079Z,25.84
2022-09-04T09:35:54.059Z,25.96
2022-09-04T09:36:54.043Z,26.06
2022-09-04T09:37:54.039Z,25.90
2022-09-04T09:38:54.031Z,25.88
2022-09-04T09:39:54.090Z,25.99
2022-09-04T09:40:54.003Z,26.06
2022-09-04T09:41:53.988Z,26.09
2022-09-04T09:42:53.983Z,26.29
2022-09-04T09:43:53.972Z,26.36
2022-09-04T09:44:53.951Z,26.33
2022-09-04T09:45:54.001Z,26.36
2022-09-04T09:46:53.942Z,26.44
2022-09-04T09:47:53.931Z,26.31
2022-09-04T09:48:53.946Z,26.44
2022-09-04T09:49:53.903Z,26.55
2022-09-04T09:50:53.891Z,26.28
2022-09-04T09:51:53.903Z,26.07
2022-09-04T09:52:53.855Z,26.16
2022-09-04T09:53:53.875Z,26.10
2022-09-04T09:54:53.843Z,25.99
2022-09-04T09:55:53.855Z,26.00
2022-09-04T09:56:54.193Z,26.06
2022-09-04T09:57:53.823Z,26.09
2022-09-04T09:58:53.825Z,26.31
2022-09-04T09:59:53.806Z,26.62
2022-09-04T10:00:53.823Z,26.73
2022-09-04T10:01:53.788Z,26.70
2022-09-04T10:02:53.760Z,26.75
2022-09-04T10:03:53.767Z,26.90
2022-09-04T10:04:53.779Z,27.00
2022-09-04T10:05:53.763Z,27.05
2022-09-04T10:06:53.727Z,27.11
2022-09-04T10:07:53.707Z,27.21
2022-09-04T10:08:53.708Z,27.21
2022-09-04T10:09:53.701Z,27.17
2022-09-04T10:10:53.679Z,27.11
2022-09-04T10:11:53.699Z,27.22
2022-09-04T10:12:53.672Z,27.32
2022-09-04T10:13:53.667Z,27.42
2022-09-04T10:14:53.642Z,27.42
2022-09-04T10:15:53.632Z,27.52
2022-09-04T10:16:53.810Z,27.68
2022-09-04T10:17:53.620Z,27.86
2022-09-04T10:18:53.611Z,28.00
2022-09-04T10:19:53.579Z,28.14
2022-09-04T10:20:53.572Z,27.93
2022-09-04T10:21:53.555Z,27.93
2022-09-04T10:22:53.572Z,27.86
2022-09-04T10:23:53.540Z,27.85
2022-09-04T10:24:53.533Z,28.01
2022-09-04T10:25:53.524Z,28.00
2022-09-04T10:26:53.514Z,27.71
2022-09-04T10:27:53.508Z,27.39
2022-09-04T10:28:53.508Z,27.26
2022-09-04T10:29:53.479Z,27.15
2022-09-04T10:30:53.541Z,27.11
2022-09-04T10:31:53.451Z,26.97
2022-09-04T10:32:53.468Z,26.68
2022-09-04T10:33:53.446Z,26.53
2022-09-04T10:34:53.452Z,26.60
2022-09-04T10:35:53.427Z,26.56
2022-09-04T10:36:53.440Z,26.77
2022-09-04T10:37:53.387Z,27.11
2022-09-04T10:38:53.376Z,27.35
2022-09-04T10:39:53.421Z,27.51
2022-09-04T10:40:53.367Z,27.29
2022-09-04T10:41:53.342Z,27.37
2022-09-04T10:42:53.349Z,27.11
2022-09-04T10:43:53.320Z,26.52
2022-09-04T10:44:53.328Z,26.23
2022-09-04T10:45:53.388Z,26.02
2022-09-04T10:46:53.307Z,25.87
2022-09-04T10:47:53.303Z,25.93
2022-09-04T10:48:53.273Z,26.10
2022-09-04T10:49:53.300Z,26.16
2022-09-04T10:50:53.280Z,26.06
2022-09-04T10:51:53.295Z,25.84
2022-09-04T10:52:53.320Z,25.75
2022-09-04T10:53:53.350Z,25.84
2022-09-04T10:54:53.380Z,25.98
2022-09-04T10:55:53.400Z,26.19
2022-09-04T10:56:53.440Z,26.48
2022-09-04T10:57:53.365Z,26.77
2022-09-04T10:58:53.381Z,26.97
2022-09-04T10:59:58.404Z,27.17
2022-09-04T11:00:54.192Z,27.33
2022-09-04T11:01:53.171Z,27.48
2022-09-04T11:02:53.124Z,27.42
2022-09-04T11:03:53.128Z,27.40
2022-09-04T11:04:53.104Z,27.30
2022-09-04T11:05:53.077Z,27.26
2022-09-04T11:06:53.086Z,27.22
2022-09-04T11:07:53.085Z,27.22
2022-09-04T11:08:53.104Z,27.15
2022-09-04T11:09:53.043Z,27.11
2022-09-04T11:10:53.053Z,27.12
2022-09-04T11:11:53.080Z,27.17
2022-09-04T11:12:53.027Z,27.30
2022-09-04T11:13:53.008Z,27.58
2022-09-04T11:14:52.997Z,27.77
2022-09-04T11:15:52.991Z,27.86
2022-09-04T11:16:53.039Z,27.64
2022-09-04T11:17:52.952Z,27.44
2022-09-04T11:18:52.998Z,27.40
2022-09-04T11:19:52.936Z,27.32
2022-09-04T11:20:52.932Z,27.37
2022-09-04T11:21:52.919Z,27.63
2022-09-04T11:22:52.909Z,27.96
2022-09-04T11:23:53.068Z,28.29
2022-09-04T11:24:52.901Z,28.52
2022-09-04T11:25:52.872Z,28.81
2022-09-04T11:26:52.873Z,28.91
2022-09-04T11:27:52.848Z,29.02
2022-09-04T11:28:52.860Z,28.97
2022-09-04T11:29:52.861Z,28.93
2022-09-04T11:30:52.837Z,28.91
2022-09-04T11:31:52.848Z,28.93
2022-09-04T11:32:52.818Z,28.89
2022-09-04T11:33:52.812Z,28.66
2022-09-04T11:34:52.772Z,28.22
2022-09-04T11:35:52.762Z,27.78
2022-09-04T11:36:52.764Z,27.32
2022-09-04T11:37:57.445Z,26.75
2022-09-04T11:38:53.768Z,26.36
2022-09-04T11:39:52.818Z,26.15
2022-09-04T11:40:52.724Z,26.00
2022-09-04T11:41:52.698Z,25.84
2022-09-04T11:42:52.696Z,25.69
2022-09-04T11:43:52.684Z,25.70
2022-09-04T11:44:52.693Z,25.69
2022-09-04T11:45:52.715Z,25.72
2022-09-04T11:46:52.657Z,25.72
2022-09-04T11:47:52.629Z,25.90
2022-09-04T11:48:52.637Z,26.29
2022-09-04T11:49:52.624Z,26.58
2022-09-04T11:50:52.609Z,26.95
2022-09-04T11:51:52.749Z,27.22
2022-09-04T11:52:52.586Z,27.45
2022-09-04T11:53:52.568Z,27.48
2022-09-04T11:54:52.589Z,27.60
2022-09-04T11:55:52.961Z,27.78
2022-09-04T11:56:52.542Z,28.02
2022-09-04T11:57:52.533Z,28.27
2022-09-04T11:58:52.529Z,28.54
2022-09-04T11:59:52.509Z,28.82
2022-09-04T12:00:52.502Z,29.07
2022-09-04T12:01:52.552Z,29.24
2022-09-04T12:02:52.481Z,29.41
2022-09-04T12:03:52.517Z,29.53
2022-09-04T12:04:52.485Z,29.68
2022-09-04T12:05:52.433Z,29.84
2022-09-04T12:06:52.454Z,30.03
2022-09-04T12:07:52.441Z,30.18
2022-09-04T12:08:52.414Z,30.28
2022-09-04T12:09:52.403Z,30.28
2022-09-04T12:10:52.428Z,30.23
2022-09-04T12:11:52.374Z,30.05
2022-09-04T12:12:52.374Z,29.94
2022-09-04T12:13:52.365Z,29.91
2022-09-04T12:14:52.353Z,29.95
2022-09-04T12:15:52.353Z,30.05
2022-09-04T12:16:52.399Z,30.03
2022-09-04T12:17:52.310Z,30.05
2022-09-04T12:18:52.317Z,30.02
2022-09-04T12:19:52.287Z,30.05
2022-09-04T12:20:52.286Z,30.12
2022-09-04T12:21:52.278Z,30.18
2022-09-04T12:22:52.270Z,30.19
2022-09-04T12:23:52.245Z,30.24
2022-09-04T12:24:52.242Z,30.19
2022-09-04T12:25:52.227Z,30.25
2022-09-04T12:26:55.139Z,30.34
2022-09-04T12:27:53.204Z,30.50
2022-09-04T12:28:52.217Z,30.70
2022-09-04T12:29:52.182Z,30.85
2022-09-04T12:30:52.202Z,31.00
2022-09-04T12:31:52.250Z,30.97
2022-09-04T12:32:52.163Z,30.87
2022-09-04T12:33:52.170Z,30.75
2022-09-04T12:34:52.145Z,30.59
2022-09-04T12:35:52.121Z,30.51
2022-09-04T12:36:52.127Z,30.27
2022-09-04T12:37:52.101Z,30.21
2022-09-04T12:38:52.104Z,30.16
2022-09-04T12:39:52.185Z,30.05
2022-09-04T12:40:52.106Z,29.98
2022-09-04T12:41:52.054Z,29.91
2022-09-04T12:42:52.089Z,29.75
2022-09-04T12:43:52.027Z,29.56
2022-09-04T12:44:52.034Z,29.34
2022-09-04T12:45:52.055Z,29.08
2022-09-04T12:46:52.207Z,28.79
2022-09-04T12:47:56.785Z,28.60
2022-09-04T12:48:53.011Z,28.45
2022-09-04T12:49:51.966Z,28.45
2022-09-04T12:50:51.978Z,28.51
2022-09-04T12:51:51.966Z,28.69